createdAt,value
2023-12-04T04:42:44.190Z,101454.28
2023-12-04T04:45:47.895Z,101454.03
2023-12-04T04:48:50.765Z,101459.16
2023-12-04T04:51:53.838Z,101461.84
2023-12-04T04:54:56.872Z,101453.34
2023-12-04T04:58:00.122Z,101460.47
2023-12-04T05:01:02.932Z,101457.66
2023-12-04T05:04:05.861Z,101458.72
2023-12-04T05:07:08.662Z,101456.06
2023-12-04T05:10:12.028Z,101458.59
2023-12-04T05:13:15.018Z,101463.72
2023-12-04T05:16:18.247Z,101477.63
2023-12-04T05:19:21.104Z,101476.19
2023-12-04T05:22:24.230Z,101475.13
2023-12-04T05:25:31.622Z,101475.94
2023-12-04T05:28:37.229Z,101476.41
2023-12-04T05:31:39.970Z,101468.81
2023-12-04T05:34:43.329Z,101465.50
2023-12-04T05:37:46.467Z,101475.13
2023-12-04T05:40:49.959Z,101475.81
2023-12-04T05:43:52.640Z,101468.63
2023-12-04T05:46:55.459Z,101467.66
2023-12-04T05:49:58.296Z,101465.22
2023-12-04T05:53:01.563Z,101474.75
2023-12-04T05:56:06.490Z,101475.88
2023-12-04T05:59:09.898Z,101474.53
2023-12-04T06:02:13.988Z,101483.69
2023-12-04T06:05:17.325Z,101478.66
2023-12-04T06:08:20.175Z,101481.22
2023-12-04T06:11:23.404Z,101477.84
2023-12-04T06:14:26.066Z,101493.34
2023-12-04T06:17:29.522Z,101488.22
2023-12-04T06:20:32.219Z,101483.81
2023-12-04T06:23:36.130Z,101484.78
2023-12-04T06:26:43.759Z,101484.78
2023-12-04T06:29:50.642Z,101479.03
2023-12-04T06:32:54.530Z,101482.72
2023-12-04T06:35:57.817Z,101485.28
2023-12-04T06:39:02.846Z,101494.97
2023-12-04T06:42:10.855Z,101505.59
2023-12-04T06:45:14.264Z,101501.63
2023-12-04T06:48:18.290Z,101504.84
2023-12-04T06:51:21.293Z,101515.59
2023-12-04T06:54:24.034Z,101501.78
2023-12-04T06:57:26.949Z,101500.59
2023-12-04T07:00:31.158Z,101490.63
2023-12-04T07:03:34.012Z,101506.44
2023-12-04T07:06:38.041Z,101506.75
2023-12-04T07:09:40.685Z,101496.91
2023-12-04T07:12:43.816Z,101515.63
2023-12-04T07:15:46.801Z,101509.13
2023-12-04T07:18:49.741Z,101510.09
2023-12-04T07:21:52.566Z,101513.47
2023-12-04T07:24:55.596Z,101519.19
2023-12-04T07:27:59.294Z,101503.31
2023-12-04T07:31:05.379Z,101507.97
2023-12-04T07:34:08.215Z,101511.87
2023-12-04T07:37:11.165Z,101509.81
2023-12-04T07:40:14.067Z,101512.06
2023-12-04T07:43:17.281Z,101522.75
2023-12-04T07:46:20.287Z,101527.34
2023-12-04T07:49:23.127Z,101523.34
2023-12-04T07:52:25.921Z,101531.28
2023-12-04T07:55:29.465Z,101516.06
2023-12-04T07:58:32.769Z,101517.34
2023-12-04T08:01:35.902Z,101526.16
2023-12-04T08:04:39.082Z,101527.12
2023-12-04T08:07:42.092Z,101529.16
2023-12-04T08:10:45.120Z,101523.38
2023-12-04T08:13:47.699Z,101519.28
2023-12-04T08:16:50.881Z,101518.59
2023-12-04T08:19:53.836Z,101522.34
2023-12-04T08:22:56.901Z,101522.50
2023-12-04T08:26:00.628Z,101526.34
2023-12-04T08:29:04.697Z,101521.44
2023-12-04T08:32:07.939Z,101523.22
2023-12-04T08:35:10.878Z,101513.53
2023-12-04T08:38:13.973Z,101524.16
2023-12-04T08:41:17.064Z,101528.50
2023-12-04T08:44:19.988Z,101522.19
2023-12-04T08:47:24.674Z,101524.34
2023-12-04T08:50:27.410Z,101523.41
2023-12-04T08:53:31.440Z,101521.84
2023-12-04T08:56:34.456Z,101523.69
2023-12-04T08:59:37.638Z,101519.88
2023-12-04T09:02:46.606Z,101517.12
2023-12-04T09:05:53.726Z,101518.56
2023-12-04T09:09:03.326Z,101523.47
2023-12-04T09:12:11.600Z,101518.91
2023-12-04T09:15:14.579Z,101521.31
2023-12-04T09:18:18.452Z,101526.44
2023-12-04T09:21:21.965Z,101526.41
2023-12-04T09:24:24.875Z,101530.69
2023-12-04T09:27:27.671Z,101528.31
2023-12-04T09:30:31.145Z,101532.75
2023-12-04T09:33:34.228Z,101522.44
2023-12-04T09:36:37.359Z,101517.19
2023-12-04T09:39:40.876Z,101509.41
2023-12-04T09:42:44.185Z,101506.88
2023-12-04T09:45:47.423Z,101500.25
2023-12-04T09:48:52.892Z,101493.50
2023-12-04T09:51:58.954Z,101483.25
2023-12-04T09:55:02.413Z,101484.94
2023-12-04T09:58:06.887Z,101479.69
2023-12-04T10:01:12.504Z,101480.66
2023-12-04T10:04:15.666Z,101472.06
2023-12-04T10:07:18.305Z,101477.13
2023-12-04T10:10:21.772Z,101471.91
2023-12-04T10:13:55.844Z,101464.94
2023-12-04T10:16:48.753Z,101455.50
2023-12-04T10:20:11.863Z,101453.03
2023-12-04T10:23:15.739Z,101441.78
2023-12-04T10:26:18.735Z,101443.69
2023-12-04T10:29:21.793Z,101440.19
2023-12-04T10:32:24.552Z,101435.91
2023-12-04T10:35:33.818Z,101433.34
2023-12-04T10:38:36.484Z,101434.19
2023-12-04T10:41:39.973Z,101415.16
2023-12-04T10:44:42.665Z,101416.00
2023-12-04T10:47:46.507Z,101411.69
2023-12-04T10:50:50.457Z,101404.84
2023-12-04T10:53:54.396Z,101403.19
2023-12-04T10:57:05.074Z,101406.63
2023-12-04T11:00:09.905Z,101397.16
2023-12-04T11:03:36.151Z,101399.78
2023-12-04T11:06:41.669Z,101403.13
2023-12-04T11:09:45.612Z,101400.56
2023-12-04T11:12:57.169Z,101393.59
2023-12-04T11:16:04.103Z,101385.81
2023-12-04T11:19:20.766Z,101378.97
2023-12-04T11:22:26.582Z,101372.09
2023-12-04T11:25:30.949Z,101372.09
2023-12-04T11:28:35.200Z,101377.34
2023-12-04T11:31:38.661Z,101366.09
2023-12-04T11:34:53.116Z,101353.88
2023-12-04T11:37:56.600Z,101356.50
2023-12-04T11:41:02.030Z,101347.91
2023-12-04T11:44:12.831Z,101335.84
2023-12-04T11:47:16.952Z,101342.72
2023-12-04T11:50:20.827Z,101336.62
2023-12-04T11:53:23.488Z,101331.47
2023-12-04T11:56:26.474Z,101336.69
2023-12-04T11:59:29.319Z,101328.94
2023-12-04T12:03:13.992Z,101329.78
2023-12-04T12:05:56.255Z,101321.97
2023-12-04T12:08:59.038Z,101322.81
2023-12-04T12:12:03.698Z,101318.50
2023-12-04T12:15:10.270Z,101308.13
2023-12-04T12:18:14.014Z,101303.00
2023-12-04T12:21:17.448Z,101300.38
2023-12-04T12:24:20.778Z,101291.72
2023-12-04T12:27:26.581Z,101288.25
2023-12-04T12:30:29.741Z,101276.97
2023-12-04T12:33:32.480Z,101273.53
2023-12-04T12:36:36.099Z,101268.34
2023-12-04T12:39:40.143Z,101254.50
2023-12-04T12:42:43.368Z,101257.09
2023-12-04T12:45:49.140Z,101247.56
2023-12-04T12:48:52.613Z,101257.06
2023-12-04T12:51:56.739Z,101247.53
2023-12-04T12:55:00.450Z,101253.59
2023-12-04T12:58:04.149Z,101253.63
2023-12-04T13:01:11.359Z,101249.28
2023-12-04T13:04:16.669Z,101250.13
2023-12-04T13:07:20.443Z,101244.06
2023-12-04T13:10:24.207Z,101237.13
2023-12-04T13:13:28.238Z,101236.28
2023-12-04T13:16:31.181Z,101241.47
2023-12-04T13:19:36.056Z,101244.06
2023-12-04T13:22:39.147Z,101243.19
2023-12-04T13:25:42.097Z,101231.94
2023-12-04T13:28:45.056Z,101227.56
2023-12-04T13:31:51.602Z,101243.13
2023-12-04T13:34:56.244Z,101237.97
2023-12-04T13:38:00.820Z,101225.81
2023-12-04T13:41:22.177Z,101229.25
2023-12-04T13:44:25.365Z,101218.84
2023-12-04T13:47:28.277Z,101206.69
2023-12-04T13:50:31.762Z,101218.81
2023-12-04T13:53:34.804Z,101213.56
2023-12-04T13:56:50.623Z,101215.28
2023-12-04T13:59:53.562Z,101222.16
2023-12-04T14:03:05.808Z,101213.47
2023-12-04T14:06:09.921Z,101207.41
2023-12-04T14:09:15.841Z,101209.16
2023-12-04T14:12:19.041Z,101202.19
2023-12-04T14:15:21.997Z,101221.16
2023-12-04T14:18:25.328Z,101214.22
2023-12-04T14:21:29.327Z,101207.25
2023-12-04T14:24:32.419Z,101207.22
2023-12-04T14:27:36.134Z,101206.22
2023-12-04T14:30:38.902Z,101206.19
2023-12-04T14:33:43.350Z,101196.56
2023-12-04T14:36:47.003Z,101191.38
2023-12-04T14:39:49.685Z,101185.22
2023-12-04T14:42:52.729Z,101187.78
2023-12-04T14:45:55.515Z,101176.50
2023-12-04T14:49:01.416Z,101171.38
2023-12-04T14:52:06.053Z,101169.69
2023-12-04T14:55:09.680Z,101173.13
2023-12-04T14:58:31.390Z,101173.03
2023-12-04T15:01:53.240Z,101168.72
2023-12-04T15:05:05.260Z,101173.03
2023-12-04T15:08:17.161Z,101175.72
2023-12-04T15:11:55.251Z,101177.41
2023-12-04T15:15:21.364Z,101167.94
2023-12-04T15:18:38.185Z,101169.59
2023-12-04T15:21:42.015Z,101173.91
2023-12-04T15:24:45.107Z,101168.78
2023-12-04T15:27:48.497Z,101156.69
2023-12-04T15:30:51.284Z,101154.09
2023-12-04T15:33:54.581Z,101141.91
2023-12-04T15:36:57.406Z,101142.84
2023-12-04T15:40:00.424Z,101139.41
2023-12-04T15:43:03.558Z,101137.59
2023-12-04T15:46:07.405Z,101147.09
2023-12-04T15:49:12.077Z,101144.59
2023-12-04T15:52:19.933Z,101145.47
2023-12-04T15:55:24.130Z,101151.53
2023-12-04T15:58:27.136Z,101148.94
2023-12-04T16:01:30.748Z,101134.22
2023-12-04T16:04:34.057Z,101149.66
2023-12-04T16:07:36.835Z,101134.12
2023-12-04T16:10:39.730Z,101140.91
2023-12-04T16:13:42.432Z,101138.25
2023-12-04T16:16:45.368Z,101135.69
2023-12-04T16:19:48.314Z,101127.78
2023-12-04T16:22:53.698Z,101126.84
2023-12-04T16:25:56.697Z,101132.78
